sensor_id;sensor_type;location;lat;lon;timestamp;P1;durP1;ratioP1;P2;durP2;ratioP2
15876;SDS011;8037;51.666;7.834;2023-08-17T00:00:34;6.00;;;1.53;;
15876;SDS011;8037;51.666;7.834;2023-08-17T00:03:00;1.50;;;1.37;;
15876;SDS011;8037;51.666;7.834;2023-08-17T00:05:26;3.03;;;1.73;;
15876;SDS011;8037;51.666;7.834;2023-08-17T00:07:52;3.43;;;1.80;;
15876;SDS011;8037;51.666;7.834;2023-08-17T00:10:18;3.20;;;1.53;;
15876;SDS011;8037;51.666;7.834;2023-08-17T00:12:44;2.70;;;2.37;;
15876;SDS011;8037;51.666;7.834;2023-08-17T00:15:10;1.77;;;1.63;;
15876;SDS011;8037;51.666;7.834;2023-08-17T00:17:36;4.67;;;1.40;;
15876;SDS011;8037;51.666;7.834;2023-08-17T00:20:02;1.20;;;1.10;;
15876;SDS011;8037;51.666;7.834;2023-08-17T00:22:30;2.80;;;1.40;;
15876;SDS011;8037;51.666;7.834;2023-08-17T00:24:56;1.70;;;1.53;;
15876;SDS011;8037;51.666;7.834;2023-08-17T00:27:22;8.93;;;1.67;;
15876;SDS011;8037;51.666;7.834;2023-08-17T00:29:48;3.97;;;1.80;;
15876;SDS011;8037;51.666;7.834;2023-08-17T00:32:14;6.30;;;1.77;;
15876;SDS011;8037;51.666;7.834;2023-08-17T00:34:40;2.67;;;1.47;;
15876;SDS011;8037;51.666;7.834;2023-08-17T00:37:06;1.70;;;1.60;;
15876;SDS011;8037;51.666;7.834;2023-08-17T00:39:32;3.60;;;1.60;;
15876;SDS011;8037;51.666;7.834;2023-08-17T00:41:57;3.23;;;1.67;;
15876;SDS011;8037;51.666;7.834;2023-08-17T00:44:23;3.97;;;1.53;;
15876;SDS011;8037;51.666;7.834;2023-08-17T00:46:49;2.10;;;1.60;;
15876;SDS011;8037;51.666;7.834;2023-08-17T00:49:15;5.33;;;1.77;;
15876;SDS011;8037;51.666;7.834;2023-08-17T00:51:41;2.80;;;1.30;;
15876;SDS011;8037;51.666;7.834;2023-08-17T00:54:07;5.40;;;2.00;;
15876;SDS011;8037;51.666;7.834;2023-08-17T00:56:34;1.83;;;1.50;;
15876;SDS011;8037;51.666;7.834;2023-08-17T00:59:01;1.77;;;1.67;;
15876;SDS011;8037;51.666;7.834;2023-08-17T01:01:27;3.80;;;1.50;;
15876;SDS011;8037;51.666;7.834;2023-08-17T01:03:53;5.40;;;1.20;;
15876;SDS011;8037;51.666;7.834;2023-08-17T01:06:19;2.87;;;1.77;;
15876;SDS011;8037;51.666;7.834;2023-08-17T01:08:45;1.50;;;1.40;;
15876;SDS011;8037;51.666;7.834;2023-08-17T01:14:08;2.43;;;1.63;;
15876;SDS011;8037;51.666;7.834;2023-08-17T01:16:39;2.10;;;1.83;;
15876;SDS011;8037;51.666;7.834;2023-08-17T01:19:07;1.50;;;1.40;;
15876;SDS011;8037;51.666;7.834;2023-08-17T01:21:41;2.43;;;1.43;;
15876;SDS011;8037;51.666;7.834;2023-08-17T01:24:08;6.80;;;1.43;;
15876;SDS011;8037;51.666;7.834;2023-08-17T01:26:34;1.70;;;1.60;;
15876;SDS011;8037;51.666;7.834;2023-08-17T01:29:00;1.20;;;1.10;;
15876;SDS011;8037;51.666;7.834;2023-08-17T01:31:34;2.73;;;1.50;;
15876;SDS011;8037;51.666;7.834;2023-08-17T01:34:03;4.57;;;2.50;;
15876;SDS011;8037;51.666;7.834;2023-08-17T01:36:37;5.30;;;2.10;;
15876;SDS011;8037;51.666;7.834;2023-08-17T01:39:05;1.40;;;1.30;;
15876;SDS011;8037;51.666;7.834;2023-08-17T01:41:31;3.40;;;2.73;;
15876;SDS011;8037;51.666;7.834;2023-08-17T01:43:58;2.90;;;1.07;;
15876;SDS011;8037;51.666;7.834;2023-08-17T01:46:27;4.17;;;1.60;;
15876;SDS011;8037;51.666;7.834;2023-08-17T01:48:53;2.03;;;1.40;;
15876;SDS011;8037;51.666;7.834;2023-08-17T01:51:21;1.60;;;1.50;;
15876;SDS011;8037;51.666;7.834;2023-08-17T01:53:47;1.87;;;1.77;;
15876;SDS011;8037;51.666;7.834;2023-08-17T01:56:13;1.53;;;1.43;;
15876;SDS011;8037;51.666;7.834;2023-08-17T01:58:39;7.70;;;2.23;;
15876;SDS011;8037;51.666;7.834;2023-08-17T02:01:05;8.40;;;1.67;;
15876;SDS011;8037;51.666;7.834;2023-08-17T02:03:31;1.50;;;1.40;;
15876;SDS011;8037;51.666;7.834;2023-08-17T02:05:57;4.10;;;1.93;;
15876;SDS011;8037;51.666;7.834;2023-08-17T02:08:23;2.50;;;1.80;;
15876;SDS011;8037;51.666;7.834;2023-08-17T02:10:49;15.33;;;2.27;;
15876;SDS011;8037;51.666;7.834;2023-08-17T02:13:15;3.17;;;2.20;;
15876;SDS011;8037;51.666;7.834;2023-08-17T02:15:41;2.10;;;1.87;;
15876;SDS011;8037;51.666;7.834;2023-08-17T02:18:08;4.90;;;1.90;;
15876;SDS011;8037;51.666;7.834;2023-08-17T02:20:34;2.70;;;1.87;;
15876;SDS011;8037;51.666;7.834;2023-08-17T02:23:00;2.40;;;1.57;;
15876;SDS011;8037;51.666;7.834;2023-08-17T02:25:26;4.10;;;1.93;;
15876;SDS011;8037;51.666;7.834;2023-08-17T02:27:52;6.20;;;2.70;;
15876;SDS011;8037;51.666;7.834;2023-08-17T02:30:18;1.93;;;1.73;;
15876;SDS011;8037;51.666;7.834;2023-08-17T02:32:44;2.07;;;1.90;;
15876;SDS011;8037;51.666;7.834;2023-08-17T02:35:10;2.20;;;1.80;;
15876;SDS011;8037;51.666;7.834;2023-08-17T02:37:36;3.37;;;2.00;;
15876;SDS011;8037;51.666;7.834;2023-08-17T02:40:20;1.60;;;1.30;;
15876;SDS011;8037;51.666;7.834;2023-08-17T02:42:47;2.03;;;1.83;;
15876;SDS011;8037;51.666;7.834;2023-08-17T02:45:13;3.10;;;2.17;;
15876;SDS011;8037;51.666;7.834;2023-08-17T02:47:39;2.60;;;2.40;;
15876;SDS011;8037;51.666;7.834;2023-08-17T02:50:05;1.93;;;1.73;;
15876;SDS011;8037;51.666;7.834;2023-08-17T02:52:31;2.40;;;1.37;;
15876;SDS011;8037;51.666;7.834;2023-08-17T02:54:57;1.70;;;1.60;;
15876;SDS011;8037;51.666;7.834;2023-08-17T02:57:23;2.07;;;1.60;;
15876;SDS011;8037;51.666;7.834;2023-08-17T02:59:49;3.60;;;1.87;;
15876;SDS011;8037;51.666;7.834;2023-08-17T03:02:15;2.63;;;1.73;;
15876;SDS011;8037;51.666;7.834;2023-08-17T03:04:41;1.70;;;1.60;;
15876;SDS011;8037;51.666;7.834;2023-08-17T03:07:07;1.57;;;1.47;;
15876;SDS011;8037;51.666;7.834;2023-08-17T03:09:33;2.60;;;2.07;;
15876;SDS011;8037;51.666;7.834;2023-08-17T03:11:59;3.80;;;2.63;;
15876;SDS011;8037;51.666;7.834;2023-08-17T03:14:25;1.50;;;1.40;;
15876;SDS011;8037;51.666;7.834;2023-08-17T03:16:51;3.57;;;2.10;;
15876;SDS011;8037;51.666;7.834;2023-08-17T03:19:17;2.93;;;2.20;;
15876;SDS011;8037;51.666;7.834;2023-08-17T03:21:43;4.80;;;2.53;;
15876;SDS011;8037;51.666;7.834;2023-08-17T03:24:09;5.43;;;3.27;;
15876;SDS011;8037;51.666;7.834;2023-08-17T03:26:35;3.03;;;2.53;;
15876;SDS011;8037;51.666;7.834;2023-08-17T03:29:01;3.37;;;2.90;;
15876;SDS011;8037;51.666;7.834;2023-08-17T03:31:27;3.50;;;2.70;;
15876;SDS011;8037;51.666;7.834;2023-08-17T03:33:53;7.40;;;2.27;;
15876;SDS011;8037;51.666;7.834;2023-08-17T03:36:20;3.20;;;2.20;;
15876;SDS011;8037;51.666;7.834;2023-08-17T03:38:46;2.70;;;2.50;;
15876;SDS011;8037;51.666;7.834;2023-08-17T03:41:12;2.70;;;1.80;;
15876;SDS011;8037;51.666;7.834;2023-08-17T03:43:38;2.37;;;2.17;;
15876;SDS011;8037;51.666;7.834;2023-08-17T03:46:04;4.90;;;2.30;;
15876;SDS011;8037;51.666;7.834;2023-08-17T03:48:30;1.77;;;1.63;;
15876;SDS011;8037;51.666;7.834;2023-08-17T03:50:56;4.03;;;2.30;;
15876;SDS011;8037;51.666;7.834;2023-08-17T03:53:22;2.53;;;2.17;;
15876;SDS011;8037;51.666;7.834;2023-08-17T03:55:48;14.00;;;2.60;;
15876;SDS011;8037;51.666;7.834;2023-08-17T03:58:14;5.63;;;3.50;;
15876;SDS011;8037;51.666;7.834;2023-08-17T04:00:40;7.70;;;3.47;;
15876;SDS011;8037;51.666;7.834;2023-08-17T04:03:07;3.30;;;2.90;;
15876;SDS011;8037;51.666;7.834;2023-08-17T04:05:33;2.47;;;2.37;;
15876;SDS011;8037;51.666;7.834;2023-08-17T04:08:00;3.83;;;2.80;;
15876;SDS011;8037;51.666;7.834;2023-08-17T04:10:29;6.20;;;2.00;;
15876;SDS011;8037;51.666;7.834;2023-08-17T04:12:56;1.80;;;1.70;;
15876;SDS011;8037;51.666;7.834;2023-08-17T04:15:22;2.23;;;2.03;;
15876;SDS011;8037;51.666;7.834;2023-08-17T04:17:48;3.00;;;2.70;;
15876;SDS011;8037;51.666;7.834;2023-08-17T04:20:14;3.40;;;3.10;;
15876;SDS011;8037;51.666;7.834;2023-08-17T04:22:40;3.83;;;2.30;;
15876;SDS011;8037;51.666;7.834;2023-08-17T04:25:06;2.60;;;1.97;;
15876;SDS011;8037;51.666;7.834;2023-08-17T04:27:32;2.67;;;2.43;;
15876;SDS011;8037;51.666;7.834;2023-08-17T04:29:58;4.70;;;3.17;;
15876;SDS011;8037;51.666;7.834;2023-08-17T04:32:24;3.20;;;3.00;;
15876;SDS011;8037;51.666;7.834;2023-08-17T04:34:50;3.27;;;2.97;;
15876;SDS011;8037;51.666;7.834;2023-08-17T04:37:16;4.50;;;3.37;;
15876;SDS011;8037;51.666;7.834;2023-08-17T04:39:42;4.27;;;3.87;;
15876;SDS011;8037;51.666;7.834;2023-08-17T04:42:08;4.73;;;4.33;;
15876;SDS011;8037;51.666;7.834;2023-08-17T04:44:34;3.63;;;3.30;;
15876;SDS011;8037;51.666;7.834;2023-08-17T04:47:00;5.40;;;4.03;;
15876;SDS011;8037;51.666;7.834;2023-08-17T04:49:26;5.80;;;4.27;;
15876;SDS011;8037;51.666;7.834;2023-08-17T04:51:52;3.37;;;3.07;;
15876;SDS011;8037;51.666;7.834;2023-08-17T04:54:19;4.10;;;3.80;;
15876;SDS011;8037;51.666;7.834;2023-08-17T04:56:45;6.70;;;4.53;;
15876;SDS011;8037;51.666;7.834;2023-08-17T04:59:11;4.37;;;3.97;;
15876;SDS011;8037;51.666;7.834;2023-08-17T05:01:37;3.90;;;3.50;;
15876;SDS011;8037;51.666;7.834;2023-08-17T05:04:03;5.10;;;3.90;;
15876;SDS011;8037;51.666;7.834;2023-08-17T05:06:29;6.73;;;4.23;;
15876;SDS011;8037;51.666;7.834;2023-08-17T05:08:55;5.30;;;3.67;;
15876;SDS011;8037;51.666;7.834;2023-08-17T05:11:21;6.63;;;2.93;;
15876;SDS011;8037;51.666;7.834;2023-08-17T05:13:47;5.00;;;3.80;;
15876;SDS011;8037;51.666;7.834;2023-08-17T05:16:13;3.53;;;3.33;;
15876;SDS011;8037;51.666;7.834;2023-08-17T05:18:39;3.00;;;2.80;;
15876;SDS011;8037;51.666;7.834;2023-08-17T05:21:05;2.60;;;2.40;;
15876;SDS011;8037;51.666;7.834;2023-08-17T05:23:31;3.23;;;3.03;;
15876;SDS011;8037;51.666;7.834;2023-08-17T05:25:57;7.40;;;3.47;;
15876;SDS011;8037;51.666;7.834;2023-08-17T05:28:23;3.70;;;2.90;;
15876;SDS011;8037;51.666;7.834;2023-08-17T05:30:49;3.10;;;2.80;;
15876;SDS011;8037;51.666;7.834;2023-08-17T05:33:15;2.70;;;2.43;;
15876;SDS011;8037;51.666;7.834;2023-08-17T05:35:41;2.73;;;2.50;;
15876;SDS011;8037;51.666;7.834;2023-08-17T05:38:08;2.33;;;2.23;;
15876;SDS011;8037;51.666;7.834;2023-08-17T05:40:34;2.77;;;2.57;;
15876;SDS011;8037;51.666;7.834;2023-08-17T05:43:00;2.90;;;2.60;;
15876;SDS011;8037;51.666;7.834;2023-08-17T05:45:27;4.17;;;2.77;;
15876;SDS011;8037;51.666;7.834;2023-08-17T05:47:52;4.30;;;2.50;;
15876;SDS011;8037;51.666;7.834;2023-08-17T05:50:18;3.90;;;2.00;;
15876;SDS011;8037;51.666;7.834;2023-08-17T05:52:44;6.83;;;3.10;;
15876;SDS011;8037;51.666;7.834;2023-08-17T05:55:10;3.47;;;2.40;;
15876;SDS011;8037;51.666;7.834;2023-08-17T05:57:36;1.90;;;1.80;;
15876;SDS011;8037;51.666;7.834;2023-08-17T06:00:02;1.80;;;1.70;;
15876;SDS011;8037;51.666;7.834;2023-08-17T06:02:28;6.93;;;2.30;;
15876;SDS011;8037;51.666;7.834;2023-08-17T06:04:54;4.20;;;3.00;;
15876;SDS011;8037;51.666;7.834;2023-08-17T06:07:20;2.80;;;2.50;;
15876;SDS011;8037;51.666;7.834;2023-08-17T06:09:46;3.30;;;2.70;;
15876;SDS011;8037;51.666;7.834;2023-08-17T06:12:12;2.40;;;2.20;;
15876;SDS011;8037;51.666;7.834;2023-08-17T06:14:38;2.70;;;1.93;;
15876;SDS011;8037;51.666;7.834;2023-08-17T06:17:04;3.20;;;2.90;;
15876;SDS011;8037;51.666;7.834;2023-08-17T06:19:29;3.13;;;2.80;;
15876;SDS011;8037;51.666;7.834;2023-08-17T06:21:55;3.47;;;3.17;;
15876;SDS011;8037;51.666;7.834;2023-08-17T06:24:21;3.20;;;2.90;;
15876;SDS011;8037;51.666;7.834;2023-08-17T06:26:47;4.20;;;3.07;;
15876;SDS011;8037;51.666;7.834;2023-08-17T06:29:13;6.20;;;3.20;;
15876;SDS011;8037;51.666;7.834;2023-08-17T06:31:39;4.00;;;2.20;;
15876;SDS011;8037;51.666;7.834;2023-08-17T06:34:05;3.33;;;2.73;;
15876;SDS011;8037;51.666;7.834;2023-08-17T06:36:31;5.77;;;3.07;;
15876;SDS011;8037;51.666;7.834;2023-08-17T06:38:57;12.40;;;3.10;;
15876;SDS011;8037;51.666;7.834;2023-08-17T06:41:23;4.53;;;1.90;;
15876;SDS011;8037;51.666;7.834;2023-08-17T06:43:50;3.63;;;3.30;;
15876;SDS011;8037;51.666;7.834;2023-08-17T06:46:16;10.43;;;2.80;;
15876;SDS011;8037;51.666;7.834;2023-08-17T06:48:42;3.57;;;2.53;;
15876;SDS011;8037;51.666;7.834;2023-08-17T06:51:08;5.03;;;3.20;;
15876;SDS011;8037;51.666;7.834;2023-08-17T06:53:34;2.60;;;2.40;;
15876;SDS011;8037;51.666;7.834;2023-08-17T06:56:00;6.97;;;3.03;;
15876;SDS011;8037;51.666;7.834;2023-08-17T06:58:26;4.40;;;1.93;;
15876;SDS011;8037;51.666;7.834;2023-08-17T07:00:52;2.80;;;2.60;;
15876;SDS011;8037;51.666;7.834;2023-08-17T07:03:18;3.90;;;2.27;;
15876;SDS011;8037;51.666;7.834;2023-08-17T07:05:45;6.87;;;2.10;;
15876;SDS011;8037;51.666;7.834;2023-08-17T07:08:11;3.63;;;2.87;;
15876;SDS011;8037;51.666;7.834;2023-08-17T07:10:38;6.97;;;2.80;;
15876;SDS011;8037;51.666;7.834;2023-08-17T07:13:04;10.97;;;3.10;;
15876;SDS011;8037;51.666;7.834;2023-08-17T07:15:30;9.10;;;2.87;;
15876;SDS011;8037;51.666;7.834;2023-08-17T07:17:56;6.13;;;2.70;;
15876;SDS011;8037;51.666;7.834;2023-08-17T07:20:22;6.23;;;3.20;;
15876;SDS011;8037;51.666;7.834;2023-08-17T07:22:48;10.10;;;2.63;;
15876;SDS011;8037;51.666;7.834;2023-08-17T07:25:14;3.57;;;2.10;;
15876;SDS011;8037;51.666;7.834;2023-08-17T07:27:41;5.87;;;3.10;;
15876;SDS011;8037;51.666;7.834;2023-08-17T07:30:07;3.40;;;2.97;;
15876;SDS011;8037;51.666;7.834;2023-08-17T07:32:34;2.90;;;2.70;;
15876;SDS011;8037;51.666;7.834;2023-08-17T07:35:00;4.23;;;2.97;;
15876;SDS011;8037;51.666;7.834;2023-08-17T07:37:26;6.00;;;3.37;;
15876;SDS011;8037;51.666;7.834;2023-08-17T07:39:57;3.10;;;2.70;;
15876;SDS011;8037;51.666;7.834;2023-08-17T07:42:23;4.13;;;3.00;;
15876;SDS011;8037;51.666;7.834;2023-08-17T07:44:49;9.50;;;2.50;;
15876;SDS011;8037;51.666;7.834;2023-08-17T07:47:15;5.10;;;2.37;;
15876;SDS011;8037;51.666;7.834;2023-08-17T07:49:41;6.03;;;2.73;;
15876;SDS011;8037;51.666;7.834;2023-08-17T07:52:07;5.00;;;4.20;;
15876;SDS011;8037;51.666;7.834;2023-08-17T07:54:33;3.50;;;3.20;;
15876;SDS011;8037;51.666;7.834;2023-08-17T07:56:59;4.00;;;3.70;;
15876;SDS011;8037;51.666;7.834;2023-08-17T07:59:25;7.43;;;3.93;;
15876;SDS011;8037;51.666;7.834;2023-08-17T08:01:51;14.30;;;4.20;;
15876;SDS011;8037;51.666;7.834;2023-08-17T08:04:17;7.27;;;4.10;;
15876;SDS011;8037;51.666;7.834;2023-08-17T08:06:43;12.00;;;3.90;;
15876;SDS011;8037;51.666;7.834;2023-08-17T08:09:08;6.77;;;4.20;;
15876;SDS011;8037;51.666;7.834;2023-08-17T08:11:34;4.90;;;3.47;;
15876;SDS011;8037;51.666;7.834;2023-08-17T08:14:00;9.20;;;4.30;;
15876;SDS011;8037;51.666;7.834;2023-08-17T08:16:27;6.57;;;4.13;;
15876;SDS011;8037;51.666;7.834;2023-08-17T08:18:55;8.77;;;4.37;;
15876;SDS011;8037;51.666;7.834;2023-08-17T08:21:21;4.90;;;3.70;;
15876;SDS011;8037;51.666;7.834;2023-08-17T08:23:47;4.23;;;3.77;;
15876;SDS011;8037;51.666;7.834;2023-08-17T08:26:13;6.67;;;4.63;;
15876;SDS011;8037;51.666;7.834;2023-08-17T08:28:39;5.20;;;4.10;;
15876;SDS011;8037;51.666;7.834;2023-08-17T08:31:05;12.03;;;4.73;;
15876;SDS011;8037;51.666;7.834;2023-08-17T08:33:31;6.90;;;4.70;;
15876;SDS011;8037;51.666;7.834;2023-08-17T08:35:56;6.97;;;4.47;;
15876;SDS011;8037;51.666;7.834;2023-08-17T08:38:23;7.10;;;4.77;;
15876;SDS011;8037;51.666;7.834;2023-08-17T08:40:49;5.20;;;4.43;;
15876;SDS011;8037;51.666;7.834;2023-08-17T08:43:16;5.73;;;4.07;;
15876;SDS011;8037;51.666;7.834;2023-08-17T08:45:42;12.67;;;5.20;;
15876;SDS011;8037;51.666;7.834;2023-08-17T08:48:11;14.50;;;4.97;;
15876;SDS011;8037;51.666;7.834;2023-08-17T08:50:39;5.00;;;4.60;;
15876;SDS011;8037;51.666;7.834;2023-08-17T08:53:08;5.77;;;3.90;;
15876;SDS011;8037;51.666;7.834;2023-08-17T08:55:40;16.73;;;5.07;;
15876;SDS011;8037;51.666;7.834;2023-08-17T08:58:07;9.60;;;5.40;;
15876;SDS011;8037;51.666;7.834;2023-08-17T09:00:34;10.20;;;5.30;;
15876;SDS011;8037;51.666;7.834;2023-08-17T09:03:01;9.97;;;5.33;;
15876;SDS011;8037;51.666;7.834;2023-08-17T09:05:31;8.57;;;4.97;;
15876;SDS011;8037;51.666;7.834;2023-08-17T09:07:59;9.20;;;5.23;;
15876;SDS011;8037;51.666;7.834;2023-08-17T09:10:26;11.30;;;6.57;;
15876;SDS011;8037;51.666;7.834;2023-08-17T09:12:53;12.67;;;5.30;;
15876;SDS011;8037;51.666;7.834;2023-08-17T09:15:19;5.63;;;5.13;;
15876;SDS011;8037;51.666;7.834;2023-08-17T09:17:45;8.87;;;5.77;;
15876;SDS011;8037;51.666;7.834;2023-08-17T09:20:17;7.80;;;5.47;;
15876;SDS011;8037;51.666;7.834;2023-08-17T09:22:59;10.80;;;5.53;;
15876;SDS011;8037;51.666;7.834;2023-08-17T09:25:28;9.73;;;6.10;;
15876;SDS011;8037;51.666;7.834;2023-08-17T09:27:54;14.50;;;6.13;;
15876;SDS011;8037;51.666;7.834;2023-08-17T09:30:22;10.20;;;5.60;;
15876;SDS011;8037;51.666;7.834;2023-08-17T09:32:48;9.57;;;6.30;;
15876;SDS011;8037;51.666;7.834;2023-08-17T09:35:14;12.87;;;6.97;;
15876;SDS011;8037;51.666;7.834;2023-08-17T09:37:40;8.10;;;5.87;;
15876;SDS011;8037;51.666;7.834;2023-08-17T09:40:06;12.47;;;6.43;;
15876;SDS011;8037;51.666;7.834;2023-08-17T09:42:36;11.60;;;6.37;;
15876;SDS011;8037;51.666;7.834;2023-08-17T09:45:04;9.10;;;6.37;;
15876;SDS011;8037;51.666;7.834;2023-08-17T09:47:30;10.93;;;5.90;;
15876;SDS011;8037;51.666;7.834;2023-08-17T09:49:56;13.00;;;6.20;;
15876;SDS011;8037;51.666;7.834;2023-08-17T09:52:22;11.83;;;5.60;;
15876;SDS011;8037;51.666;7.834;2023-08-17T09:54:52;12.03;;;6.23;;
15876;SDS011;8037;51.666;7.834;2023-08-17T09:57:19;7.47;;;6.67;;
15876;SDS011;8037;51.666;7.834;2023-08-17T09:59:45;10.10;;;6.30;;
15876;SDS011;8037;51.666;7.834;2023-08-17T10:02:15;12.50;;;6.93;;
15876;SDS011;8037;51.666;7.834;2023-08-17T10:04:43;9.57;;;6.03;;
15876;SDS011;8037;51.666;7.834;2023-08-17T10:07:13;10.10;;;6.20;;
15876;SDS011;8037;51.666;7.834;2023-08-17T10:09:42;9.10;;;6.60;;
15876;SDS011;8037;51.666;7.834;2023-08-17T10:12:12;7.47;;;6.77;;
15876;SDS011;8037;51.666;7.834;2023-08-17T10:14:42;10.23;;;5.93;;
15876;SDS011;8037;51.666;7.834;2023-08-17T10:17:12;9.90;;;6.27;;
15876;SDS011;8037;51.666;7.834;2023-08-17T10:19:47;11.03;;;6.13;;
15876;SDS011;8037;51.666;7.834;2023-08-17T10:22:29;11.37;;;6.03;;
15876;SDS011;8037;51.666;7.834;2023-08-17T10:24:57;8.07;;;6.23;;
15876;SDS011;8037;51.666;7.834;2023-08-17T10:27:24;13.03;;;6.70;;
15876;SDS011;8037;51.666;7.834;2023-08-17T10:29:51;12.60;;;7.07;;
15876;SDS011;8037;51.666;7.834;2023-08-17T10:32:17;16.73;;;7.40;;
15876;SDS011;8037;51.666;7.834;2023-08-17T10:34:43;11.03;;;6.20;;
15876;SDS011;8037;51.666;7.834;2023-08-17T10:37:09;9.50;;;6.20;;
15876;SDS011;8037;51.666;7.834;2023-08-17T10:39:36;11.30;;;5.60;;
15876;SDS011;8037;51.666;7.834;2023-08-17T10:42:04;7.73;;;6.20;;
15876;SDS011;8037;51.666;7.834;2023-08-17T10:47:25;7.10;;;6.13;;
15876;SDS011;8037;51.666;7.834;2023-08-17T10:49:55;9.30;;;5.63;;
15876;SDS011;8037;51.666;7.834;2023-08-17T10:52:25;10.47;;;6.90;;
15876;SDS011;8037;51.666;7.834;2023-08-17T10:54:51;8.50;;;5.87;;
15876;SDS011;8037;51.666;7.834;2023-08-17T11:00:07;22.53;;;5.90;;
15876;SDS011;8037;51.666;7.834;2023-08-17T11:02:33;10.80;;;6.83;;
15876;SDS011;8037;51.666;7.834;2023-08-17T11:04:59;11.70;;;6.20;;
15876;SDS011;8037;51.666;7.834;2023-08-17T11:07:26;7.73;;;6.10;;
15876;SDS011;8037;51.666;7.834;2023-08-17T11:09:55;8.27;;;6.60;;
15876;SDS011;8037;51.666;7.834;2023-08-17T11:12:25;6.13;;;5.53;;
15876;SDS011;8037;51.666;7.834;2023-08-17T11:14:51;22.77;;;6.47;;
15876;SDS011;8037;51.666;7.834;2023-08-17T11:17:20;9.27;;;6.47;;
15876;SDS011;8037;51.666;7.834;2023-08-17T11:19:46;12.10;;;6.10;;
15876;SDS011;8037;51.666;7.834;2023-08-17T11:22:15;9.30;;;7.50;;
15876;SDS011;8037;51.666;7.834;2023-08-17T11:24:41;7.93;;;5.90;;
15876;SDS011;8037;51.666;7.834;2023-08-17T11:27:08;16.33;;;7.10;;
15876;SDS011;8037;51.666;7.834;2023-08-17T11:29:35;11.47;;;6.80;;
15876;SDS011;8037;51.666;7.834;2023-08-17T11:32:02;13.30;;;7.87;;
15876;SDS011;8037;51.666;7.834;2023-08-17T11:34:29;12.80;;;7.83;;
15876;SDS011;8037;51.666;7.834;2023-08-17T11:36:56;13.13;;;8.63;;
15876;SDS011;8037;51.666;7.834;2023-08-17T11:39:22;8.97;;;7.07;;
15876;SDS011;8037;51.666;7.834;2023-08-17T11:41:49;11.93;;;7.13;;
15876;SDS011;8037;51.666;7.834;2023-08-17T11:44:18;12.37;;;8.10;;
15876;SDS011;8037;51.666;7.834;2023-08-17T11:46:47;16.20;;;8.00;;
15876;SDS011;8037;51.666;7.834;2023-08-17T11:49:13;12.90;;;7.20;;
15876;SDS011;8037;51.666;7.834;2023-08-17T11:51:38;12.57;;;8.37;;
15876;SDS011;8037;51.666;7.834;2023-08-17T11:54:05;8.27;;;5.70;;
15876;SDS011;8037;51.666;7.834;2023-08-17T11:56:32;8.63;;;6.80;;
15876;SDS011;8037;51.666;7.834;2023-08-17T11:58:58;10.00;;;7.07;;
15876;SDS011;8037;51.666;7.834;2023-08-17T12:01:24;18.03;;;7.87;;
15876;SDS011;8037;51.666;7.834;2023-08-17T12:03:50;14.10;;;8.07;;
15876;SDS011;8037;51.666;7.834;2023-08-17T12:06:16;12.40;;;7.30;;
15876;SDS011;8037;51.666;7.834;2023-08-17T12:08:46;11.50;;;8.10;;
15876;SDS011;8037;51.666;7.834;2023-08-17T12:11:12;9.63;;;6.57;;
15876;SDS011;8037;51.666;7.834;2023-08-17T12:13:38;15.37;;;7.53;;
15876;SDS011;8037;51.666;7.834;2023-08-17T12:16:04;9.47;;;7.40;;
15876;SDS011;8037;51.666;7.834;2023-08-17T12:18:33;12.20;;;8.17;;
15876;SDS011;8037;51.666;7.834;2023-08-17T12:20:59;17.13;;;7.97;;
15876;SDS011;8037;51.666;7.834;2023-08-17T12:23:25;12.47;;;8.03;;
15876;SDS011;8037;51.666;7.834;2023-08-17T12:25:52;9.60;;;7.50;;
15876;SDS011;8037;51.666;7.834;2023-08-17T12:28:18;18.10;;;8.10;;
15876;SDS011;8037;51.666;7.834;2023-08-17T12:30:44;19.40;;;7.83;;
15876;SDS011;8037;51.666;7.834;2023-08-17T12:33:10;10.27;;;8.60;;
15876;SDS011;8037;51.666;7.834;2023-08-17T12:35:36;8.60;;;7.67;;
15876;SDS011;8037;51.666;7.834;2023-08-17T12:38:02;10.90;;;8.03;;
15876;SDS011;8037;51.666;7.834;2023-08-17T12:40:28;14.67;;;7.77;;
15876;SDS011;8037;51.666;7.834;2023-08-17T12:42:54;20.03;;;8.10;;
15876;SDS011;8037;51.666;7.834;2023-08-17T12:45:20;11.77;;;8.33;;
15876;SDS011;8037;51.666;7.834;2023-08-17T12:47:45;14.73;;;8.70;;
15876;SDS011;8037;51.666;7.834;2023-08-17T12:50:12;12.87;;;8.60;;
15876;SDS011;8037;51.666;7.834;2023-08-17T12:52:38;14.37;;;7.70;;
15876;SDS011;8037;51.666;7.834;2023-08-17T12:55:04;16.87;;;8.70;;
15876;SDS011;8037;51.666;7.834;2023-08-17T12:57:30;10.73;;;7.50;;
15876;SDS011;8037;51.666;7.834;2023-08-17T12:59:56;10.60;;;7.53;;
15876;SDS011;8037;51.666;7.834;2023-08-17T13:02:23;6.83;;;6.07;;
15876;SDS011;8037;51.666;7.834;2023-08-17T13:04:49;12.87;;;8.13;;
15876;SDS011;8037;51.666;7.834;2023-08-17T13:07:15;7.63;;;6.37;;
15876;SDS011;8037;51.666;7.834;2023-08-17T13:09:41;6.60;;;5.47;;
15876;SDS011;8037;51.666;7.834;2023-08-17T13:12:07;11.40;;;6.40;;
15876;SDS011;8037;51.666;7.834;2023-08-17T13:14:33;8.80;;;7.00;;
15876;SDS011;8037;51.666;7.834;2023-08-17T13:16:59;9.27;;;6.80;;
15876;SDS011;8037;51.666;7.834;2023-08-17T13:19:25;5.97;;;5.40;;
15876;SDS011;8037;51.666;7.834;2023-08-17T13:21:51;6.00;;;5.40;;
15876;SDS011;8037;51.666;7.834;2023-08-17T13:24:16;9.17;;;6.20;;
15876;SDS011;8037;51.666;7.834;2023-08-17T13:26:42;5.57;;;5.00;;
15876;SDS011;8037;51.666;7.834;2023-08-17T13:29:08;7.53;;;5.73;;
15876;SDS011;8037;51.666;7.834;2023-08-17T13:31:34;10.43;;;5.57;;
15876;SDS011;8037;51.666;7.834;2023-08-17T13:34:01;9.33;;;5.53;;
15876;SDS011;8037;51.666;7.834;2023-08-17T13:36:26;5.50;;;5.00;;
15876;SDS011;8037;51.666;7.834;2023-08-17T13:38:53;9.27;;;5.07;;
15876;SDS011;8037;51.666;7.834;2023-08-17T13:41:19;4.90;;;4.20;;
15876;SDS011;8037;51.666;7.834;2023-08-17T13:43:45;4.67;;;4.27;;
15876;SDS011;8037;51.666;7.834;2023-08-17T13:46:11;4.87;;;4.40;;
15876;SDS011;8037;51.666;7.834;2023-08-17T13:48:37;9.00;;;4.33;;
15876;SDS011;8037;51.666;7.834;2023-08-17T13:51:12;8.13;;;5.80;;
15876;SDS011;8037;51.666;7.834;2023-08-17T13:53:39;8.13;;;5.47;;
15876;SDS011;8037;51.666;7.834;2023-08-17T13:56:11;7.70;;;5.90;;
15876;SDS011;8037;51.666;7.834;2023-08-17T13:58:37;8.90;;;7.17;;
15876;SDS011;8037;51.666;7.834;2023-08-17T14:01:03;13.30;;;7.57;;
15876;SDS011;8037;51.666;7.834;2023-08-17T14:03:28;14.77;;;9.30;;
15876;SDS011;8037;51.666;7.834;2023-08-17T14:05:55;11.93;;;8.97;;
15876;SDS011;8037;51.666;7.834;2023-08-17T14:08:21;11.40;;;9.37;;
15876;SDS011;8037;51.666;7.834;2023-08-17T14:10:47;11.90;;;7.33;;
15876;SDS011;8037;51.666;7.834;2023-08-17T14:13:13;25.23;;;7.80;;
15876;SDS011;8037;51.666;7.834;2023-08-17T14:15:39;9.17;;;7.20;;
15876;SDS011;8037;51.666;7.834;2023-08-17T14:18:05;7.80;;;5.97;;
15876;SDS011;8037;51.666;7.834;2023-08-17T14:20:31;7.33;;;5.53;;
15876;SDS011;8037;51.666;7.834;2023-08-17T14:22:57;5.13;;;4.67;;
15876;SDS011;8037;51.666;7.834;2023-08-17T14:25:23;5.60;;;3.70;;
15876;SDS011;8037;51.666;7.834;2023-08-17T14:27:49;5.90;;;4.10;;
15876;SDS011;8037;51.666;7.834;2023-08-17T14:30:15;8.23;;;4.30;;
15876;SDS011;8037;51.666;7.834;2023-08-17T14:32:41;5.17;;;3.50;;
15876;SDS011;8037;51.666;7.834;2023-08-17T14:35:06;4.43;;;4.13;;
15876;SDS011;8037;51.666;7.834;2023-08-17T14:37:32;4.17;;;3.10;;
15876;SDS011;8037;51.666;7.834;2023-08-17T14:39:59;4.30;;;3.80;;
15876;SDS011;8037;51.666;7.834;2023-08-17T14:42:25;5.47;;;4.97;;
15876;SDS011;8037;51.666;7.834;2023-08-17T14:44:51;5.50;;;4.27;;
15876;SDS011;8037;51.666;7.834;2023-08-17T14:47:17;5.77;;;4.27;;
15876;SDS011;8037;51.666;7.834;2023-08-17T14:49:43;4.87;;;4.47;;
15876;SDS011;8037;51.666;7.834;2023-08-17T14:52:09;4.17;;;3.77;;
15876;SDS011;8037;51.666;7.834;2023-08-17T14:54:35;5.90;;;4.53;;
15876;SDS011;8037;51.666;7.834;2023-08-17T14:57:01;4.13;;;3.70;;
15876;SDS011;8037;51.666;7.834;2023-08-17T14:59:27;5.47;;;4.07;;
15876;SDS011;8037;51.666;7.834;2023-08-17T15:01:53;4.30;;;3.90;;